sensor_id;sensor_type;location;lat;lon;timestamp;pressure;altitude;pressure_sealevel;temperature;humidity
69318;BME280;56457;52.190;4.440;2023-03-30T00:00:36;100569.25;;;13.88;100.00
69318;BME280;56457;52.190;4.440;2023-03-30T00:01:37;100570.38;;;13.80;100.00
69318;BME280;56457;52.190;4.440;2023-03-30T00:02:37;100566.13;;;13.74;100.00
69318;BME280;56457;52.190;4.440;2023-03-30T00:03:38;100568.06;;;13.66;100.00
69318;BME280;56457;52.190;4.440;2023-03-30T00:04:40;100559.41;;;13.61;100.00
69318;BME280;56457;52.190;4.440;2023-03-30T00:05:41;100559.56;;;13.55;100.00
69318;BME280;56457;52.190;4.440;2023-03-30T00:06:42;100551.97;;;13.41;100.00
69318;BME280;56457;52.190;4.440;2023-03-30T00:07:43;100543.34;;;13.34;100.00
69318;BME280;56457;52.190;4.440;2023-03-30T00:08:47;100538.22;;;13.28;100.00
69318;BME280;56457;52.190;4.440;2023-03-30T00:09:47;100533.09;;;13.22;100.00
69318;BME280;56457;52.190;4.440;2023-03-30T00:10:47;100532.34;;;13.17;100.00
69318;BME280;56457;52.190;4.440;2023-03-30T00:11:48;100532.34;;;13.15;100.00
69318;BME280;56457;52.190;4.440;2023-03-30T00:12:49;100531.59;;;13.10;100.00
69318;BME280;56457;52.190;4.440;2023-03-30T00:13:50;100527.25;;;13.08;100.00
69318;BME280;56457;52.190;4.440;2023-03-30T00:14:50;100529.06;;;13.06;100.00
69318;BME280;56457;52.190;4.440;2023-03-30T00:15:51;100530.00;;;13.03;100.00
69318;BME280;56457;52.190;4.440;2023-03-30T00:16:51;100533.63;;;12.99;100.00
69318;BME280;56457;52.190;4.440;2023-03-30T00:17:52;100524.00;;;12.98;100.00
69318;BME280;56457;52.190;4.440;2023-03-30T00:18:53;100518.53;;;13.06;100.00
69318;BME280;56457;52.190;4.440;2023-03-30T00:19:54;100513.28;;;13.06;100.00
69318;BME280;56457;52.190;4.440;2023-03-30T00:20:55;100540.53;;;13.03;100.00
69318;BME280;56457;52.190;4.440;2023-03-30T00:21:55;100525.63;;;13.02;100.00
69318;BME280;56457;52.190;4.440;2023-03-30T00:22:55;100532.63;;;13.03;100.00
69318;BME280;56457;52.190;4.440;2023-03-30T00:23:56;100527.38;;;13.03;100.00
69318;BME280;56457;52.190;4.440;2023-03-30T00:24:56;100529.13;;;13.04;100.00
69318;BME280;56457;52.190;4.440;2023-03-30T00:25:56;100533.63;;;12.99;100.00
69318;BME280;56457;52.190;4.440;2023-03-30T00:26:57;100529.22;;;13.00;100.00
69318;BME280;56457;52.190;4.440;2023-03-30T00:27:57;100534.47;;;13.00;100.00
69318;BME280;56457;52.190;4.440;2023-03-30T00:28:57;100523.94;;;13.00;100.00
69318;BME280;56457;52.190;4.440;2023-03-30T00:29:58;100523.09;;;12.98;100.00
69318;BME280;56457;52.190;4.440;2023-03-30T00:30:58;100524.72;;;13.03;100.00
69318;BME280;56457;52.190;4.440;2023-03-30T00:31:58;100528.25;;;13.02;100.00
69318;BME280;56457;52.190;4.440;2023-03-30T00:32:59;100534.38;;;13.04;100.00
69318;BME280;56457;52.190;4.440;2023-03-30T00:33:59;100528.22;;;13.04;100.00
69318;BME280;56457;52.190;4.440;2023-03-30T00:35:00;100536.06;;;13.07;100.00
69318;BME280;56457;52.190;4.440;2023-03-30T00:36:00;100529.00;;;13.09;100.00
69318;BME280;56457;52.190;4.440;2023-03-30T00:37:01;100518.47;;;13.09;100.00
69318;BME280;56457;52.190;4.440;2023-03-30T00:38:02;100527.06;;;13.17;100.00
69318;BME280;56457;52.190;4.440;2023-03-30T00:39:03;100527.03;;;13.18;100.00
69318;BME280;56457;52.190;4.440;2023-03-30T00:40:08;100519.94;;;13.22;100.00
69318;BME280;56457;52.190;4.440;2023-03-30T00:41:09;100516.41;;;13.23;100.00
69318;BME280;56457;52.190;4.440;2023-03-30T00:42:15;100519.91;;;13.24;100.00
69318;BME280;56457;52.190;4.440;2023-03-30T00:43:16;100518.91;;;13.29;100.00
69318;BME280;56457;52.190;4.440;2023-03-30T00:45:35;100508.22;;;13.35;100.00
69318;BME280;56457;52.190;4.440;2023-03-30T00:46:36;100517.00;;;13.34;100.00
69318;BME280;56457;52.190;4.440;2023-03-30T00:47:40;100521.41;;;13.35;100.00
69318;BME280;56457;52.190;4.440;2023-03-30T00:48:41;100510.91;;;13.32;100.00
69318;BME280;56457;52.190;4.440;2023-03-30T00:49:41;100522.38;;;13.31;100.00
69318;BME280;56457;52.190;4.440;2023-03-30T00:50:46;100513.66;;;13.28;100.00
69318;BME280;56457;52.190;4.440;2023-03-30T00:51:48;100504.94;;;13.26;100.00
69318;BME280;56457;52.190;4.440;2023-03-30T00:52:49;100514.66;;;13.22;100.00
69318;BME280;56457;52.190;4.440;2023-03-30T00:53:52;100513.03;;;13.15;100.00
69318;BME280;56457;52.190;4.440;2023-03-30T00:54:54;100510.31;;;13.19;100.00
69318;BME280;56457;52.190;4.440;2023-03-30T00:55:56;100517.44;;;13.14;100.00
69318;BME280;56457;52.190;4.440;2023-03-30T00:56:57;100517.56;;;13.10;100.00
69318;BME280;56457;52.190;4.440;2023-03-30T00:57:58;100522.03;;;13.06;100.00
69318;BME280;56457;52.190;4.440;2023-03-30T00:58:59;100519.41;;;13.06;100.00
69318;BME280;56457;52.190;4.440;2023-03-30T00:59:59;100521.19;;;13.06;100.00
69318;BME280;56457;52.190;4.440;2023-03-30T01:01:00;100510.69;;;13.04;100.00
69318;BME280;56457;52.190;4.440;2023-03-30T01:02:01;100508.09;;;13.01;100.00
69318;BME280;56457;52.190;4.440;2023-03-30T01:03:02;100511.56;;;13.05;100.00
69318;BME280;56457;52.190;4.440;2023-03-30T01:04:04;100502.03;;;12.99;100.00
69318;BME280;56457;52.190;4.440;2023-03-30T01:05:05;100514.31;;;12.99;100.00
69318;BME280;56457;52.190;4.440;2023-03-30T01:06:05;100508.19;;;12.98;100.00
69318;BME280;56457;52.190;4.440;2023-03-30T01:07:09;100510.91;;;12.93;100.00
69318;BME280;56457;52.190;4.440;2023-03-30T01:08:11;100508.34;;;12.90;100.00
69318;BME280;56457;52.190;4.440;2023-03-30T01:09:15;100501.25;;;12.94;100.00
69318;BME280;56457;52.190;4.440;2023-03-30T01:10:17;100497.81;;;12.92;100.00
69318;BME280;56457;52.190;4.440;2023-03-30T01:11:17;100498.66;;;12.92;100.00
69318;BME280;56457;52.190;4.440;2023-03-30T01:12:18;100494.22;;;12.94;100.00
69318;BME280;56457;52.190;4.440;2023-03-30T01:13:19;100494.22;;;12.94;100.00
69318;BME280;56457;52.190;4.440;2023-03-30T01:14:20;100486.38;;;12.91;100.00
69318;BME280;56457;52.190;4.440;2023-03-30T01:15:20;100486.41;;;12.90;100.00
69318;BME280;56457;52.190;4.440;2023-03-30T01:17:36;100486.28;;;12.96;100.00
69318;BME280;56457;52.190;4.440;2023-03-30T01:18:46;100482.97;;;12.88;100.00
69318;BME280;56457;52.190;4.440;2023-03-30T01:20:17;100484.59;;;12.93;100.00
69318;BME280;56457;52.190;4.440;2023-03-30T01:32:35;100469.69;;;12.92;100.00
69318;BME280;56457;52.190;4.440;2023-03-30T01:33:46;100474.97;;;12.92;100.00
69318;BME280;56457;52.190;4.440;2023-03-30T01:37:31;100473.28;;;12.88;100.00
69318;BME280;56457;52.190;4.440;2023-03-30T01:39:01;100472.44;;;12.88;100.00
69318;BME280;56457;52.190;4.440;2023-03-30T01:40:09;100467.06;;;12.91;100.00
69318;BME280;56457;52.190;4.440;2023-03-30T01:41:21;100471.47;;;12.90;100.00
69318;BME280;56457;52.190;4.440;2023-03-30T01:43:37;100464.44;;;12.91;100.00
69318;BME280;56457;52.190;4.440;2023-03-30T01:45:56;100462.72;;;12.90;100.00
69318;BME280;56457;52.190;4.440;2023-03-30T01:47:05;100462.66;;;12.93;100.00
69318;BME280;56457;52.190;4.440;2023-03-30T01:48:10;100468.78;;;12.93;100.00
69318;BME280;56457;52.190;4.440;2023-03-30T01:49:18;100460.03;;;12.91;100.00
69318;BME280;56457;52.190;4.440;2023-03-30T01:50:22;100466.16;;;12.93;100.00
69318;BME280;56457;52.190;4.440;2023-03-30T01:51:31;100457.50;;;12.88;100.00
69318;BME280;56457;52.190;4.440;2023-03-30T01:52:38;100463.78;;;12.83;100.00
69318;BME280;56457;52.190;4.440;2023-03-30T01:53:53;100462.84;;;12.84;100.00
69318;BME280;56457;52.190;4.440;2023-03-30T01:54:59;100463.72;;;12.84;100.00
69318;BME280;56457;52.190;4.440;2023-03-30T01:56:04;100470.97;;;12.75;100.00
69318;BME280;56457;52.190;4.440;2023-03-30T01:57:14;100477.16;;;12.72;100.00
69318;BME280;56457;52.190;4.440;2023-03-30T01:58:20;100473.63;;;12.75;100.00
69318;BME280;56457;52.190;4.440;2023-03-30T01:59:28;100476.22;;;12.76;100.00
69318;BME280;56457;52.190;4.440;2023-03-30T02:00:30;100487.56;;;12.78;100.00
69318;BME280;56457;52.190;4.440;2023-03-30T02:01:32;100478.78;;;12.78;100.00
69318;BME280;56457;52.190;4.440;2023-03-30T02:02:35;100478.00;;;12.74;100.00
69318;BME280;56457;52.190;4.440;2023-03-30T02:03:36;100477.94;;;12.77;100.00
69318;BME280;56457;52.190;4.440;2023-03-30T02:04:38;100476.06;;;12.82;100.00
69318;BME280;56457;52.190;4.440;2023-03-30T02:05:39;100482.25;;;12.81;100.00
69318;BME280;56457;52.190;4.440;2023-03-30T02:06:43;100483.16;;;12.80;100.00
69318;BME280;56457;52.190;4.440;2023-03-30T02:07:46;100482.25;;;12.81;100.00
69318;BME280;56457;52.190;4.440;2023-03-30T02:08:49;100485.72;;;12.82;100.00
69318;BME280;56457;52.190;4.440;2023-03-30T02:09:51;100482.19;;;12.83;100.00
69318;BME280;56457;52.190;4.440;2023-03-30T02:10:52;100479.56;;;12.83;100.00
69318;BME280;56457;52.190;4.440;2023-03-30T02:11:55;100490.03;;;12.86;100.00
69318;BME280;56457;52.190;4.440;2023-03-30T02:12:55;100487.53;;;12.80;100.00
69318;BME280;56457;52.190;4.440;2023-03-30T02:13:57;100483.88;;;12.85;100.00
69318;BME280;56457;52.190;4.440;2023-03-30T02:15:00;100490.91;;;12.86;100.00
69318;BME280;56457;52.190;4.440;2023-03-30T02:16:03;100494.41;;;12.85;100.00
69318;BME280;56457;52.190;4.440;2023-03-30T02:17:10;100486.50;;;12.85;100.00
69318;BME280;56457;52.190;4.440;2023-03-30T02:18:12;100483.97;;;12.82;100.00
69318;BME280;56457;52.190;4.440;2023-03-30T02:19:13;100488.28;;;12.86;100.00
69318;BME280;56457;52.190;4.440;2023-03-30T02:20:14;100483.97;;;12.82;100.00
69318;BME280;56457;52.190;4.440;2023-03-30T02:21:18;100487.50;;;12.81;100.00
69318;BME280;56457;52.190;4.440;2023-03-30T02:22:18;100486.56;;;12.84;100.00
69318;BME280;56457;52.190;4.440;2023-03-30T02:23:19;100481.19;;;12.88;100.00
69318;BME280;56457;52.190;4.440;2023-03-30T02:24:23;100481.25;;;12.87;100.00
69318;BME280;56457;52.190;4.440;2023-03-30T02:25:25;100484.72;;;12.87;100.00
69318;BME280;56457;52.190;4.440;2023-03-30T02:26:25;100481.25;;;12.85;100.00
69318;BME280;56457;52.190;4.440;2023-03-30T02:27:26;100472.44;;;12.88;100.00
69318;BME280;56457;52.190;4.440;2023-03-30T02:28:27;100474.97;;;12.92;100.00
69318;BME280;56457;52.190;4.440;2023-03-30T02:29:27;100468.94;;;12.87;100.00
69318;BME280;56457;52.190;4.440;2023-03-30T02:30:35;100472.47;;;12.86;100.00
69318;BME280;56457;52.190;4.440;2023-03-30T02:31:36;100484.78;;;12.84;100.00
69318;BME280;56457;52.190;4.440;2023-03-30T02:32:45;100471.72;;;12.81;100.00
69318;BME280;56457;52.190;4.440;2023-03-30T02:37:53;100476.16;;;12.78;100.00
69318;BME280;56457;52.190;4.440;2023-03-30T02:40:12;100476.22;;;12.76;100.00
69318;BME280;56457;52.190;4.440;2023-03-30T02:41:29;100479.66;;;12.78;100.00
69318;BME280;56457;52.190;4.440;2023-03-30T02:47:27;100468.22;;;12.79;100.00
69318;BME280;56457;52.190;4.440;2023-03-30T02:48:38;100460.31;;;12.79;100.00
69318;BME280;56457;52.190;4.440;2023-03-30T02:52:44;100464.69;;;12.82;100.00
69318;BME280;56457;52.190;4.440;2023-03-30T02:53:32;100469.06;;;12.81;100.00
69318;BME280;56457;52.190;4.440;2023-03-30T02:56:59;100460.94;;;12.90;100.00
69318;BME280;56457;52.190;4.440;2023-03-30T02:57:36;100462.66;;;12.93;100.00
69318;BME280;56457;52.190;4.440;2023-03-30T02:58:46;100459.91;;;12.98;100.00
69318;BME280;56457;52.190;4.440;2023-03-30T02:59:51;100453.81;;;12.96;100.00
69318;BME280;56457;52.190;4.440;2023-03-30T03:00:55;100446.94;;;12.90;100.00
69318;BME280;56457;52.190;4.440;2023-03-30T03:01:59;100455.53;;;12.98;100.00
69318;BME280;56457;52.190;4.440;2023-03-30T03:03:05;100454.72;;;12.94;100.00
69318;BME280;56457;52.190;4.440;2023-03-30T03:04:09;100449.50;;;12.93;100.00
69318;BME280;56457;52.190;4.440;2023-03-30T03:05:11;100452.00;;;12.98;100.00
69318;BME280;56457;52.190;4.440;2023-03-30T03:06:13;100457.31;;;12.96;100.00
69318;BME280;56457;52.190;4.440;2023-03-30T03:07:14;100460.75;;;13.00;100.00
69318;BME280;56457;52.190;4.440;2023-03-30T03:08:14;100458.13;;;13.00;100.00
69318;BME280;56457;52.190;4.440;2023-03-30T03:09:20;100449.38;;;12.98;100.00
69318;BME280;56457;52.190;4.440;2023-03-30T03:10:24;100445.00;;;12.97;100.00
69318;BME280;56457;52.190;4.440;2023-03-30T03:11:24;100449.31;;;13.01;100.00
69318;BME280;56457;52.190;4.440;2023-03-30T03:12:25;100444.91;;;13.01;100.00
69318;BME280;56457;52.190;4.440;2023-03-30T03:13:25;100451.84;;;13.04;100.00
69318;BME280;56457;52.190;4.440;2023-03-30T03:14:26;100444.91;;;13.01;100.00
69318;BME280;56457;52.190;4.440;2023-03-30T03:15:28;100451.84;;;13.04;100.00
69318;BME280;56457;52.190;4.440;2023-03-30T03:16:29;100450.19;;;13.01;100.00
69318;BME280;56457;52.190;4.440;2023-03-30T03:17:29;100460.66;;;13.04;100.00
69318;BME280;56457;52.190;4.440;2023-03-30T03:18:33;100444.84;;;13.03;100.00
69318;BME280;56457;52.190;4.440;2023-03-30T03:19:39;100442.16;;;13.06;100.00
69318;BME280;56457;52.190;4.440;2023-03-30T03:20:39;100451.84;;;13.04;100.00
69318;BME280;56457;52.190;4.440;2023-03-30T03:21:40;100451.75;;;13.08;100.00
69318;BME280;56457;52.190;4.440;2023-03-30T03:22:40;100447.34;;;13.09;100.00
69318;BME280;56457;52.190;4.440;2023-03-30T03:23:40;100443.91;;;13.07;100.00
69318;BME280;56457;52.190;4.440;2023-03-30T03:24:41;100443.91;;;13.07;100.00
69318;BME280;56457;52.190;4.440;2023-03-30T03:25:42;100452.56;;;13.10;100.00
69318;BME280;56457;52.190;4.440;2023-03-30T03:26:42;100438.63;;;13.07;100.00
69318;BME280;56457;52.190;4.440;2023-03-30T03:27:43;100453.63;;;13.03;100.00
69318;BME280;56457;52.190;4.440;2023-03-30T03:28:43;100456.16;;;13.08;100.00
69318;BME280;56457;52.190;4.440;2023-03-30T03:29:44;100445.63;;;13.08;100.00
69318;BME280;56457;52.190;4.440;2023-03-30T03:30:44;100443.94;;;13.05;100.00
69318;BME280;56457;52.190;4.440;2023-03-30T03:31:44;100439.69;;;13.00;100.00
69318;BME280;56457;52.190;4.440;2023-03-30T03:32:45;100442.41;;;12.95;100.00
69318;BME280;56457;52.190;4.440;2023-03-30T03:33:45;100439.84;;;12.93;100.00
69318;BME280;56457;52.190;4.440;2023-03-30T03:34:45;100449.59;;;12.88;100.00
69318;BME280;56457;52.190;4.440;2023-03-30T03:35:46;100443.28;;;12.96;100.00
69318;BME280;56457;52.190;4.440;2023-03-30T03:36:46;100460.03;;;12.93;100.00
69318;BME280;56457;52.190;4.440;2023-03-30T03:37:51;100453.91;;;12.92;100.00
69318;BME280;56457;52.190;4.440;2023-03-30T03:38:51;100453.06;;;12.90;100.00
69318;BME280;56457;52.190;4.440;2023-03-30T03:39:51;100448.69;;;12.89;100.00
69318;BME280;56457;52.190;4.440;2023-03-30T03:40:53;100453.19;;;12.86;100.00
69318;BME280;56457;52.190;4.440;2023-03-30T03:41:53;100445.28;;;12.84;100.00
69318;BME280;56457;52.190;4.440;2023-03-30T03:42:54;100444.38;;;12.85;100.00
69318;BME280;56457;52.190;4.440;2023-03-30T03:43:54;100444.47;;;12.82;100.00
69318;BME280;56457;52.190;4.440;2023-03-30T03:44:54;100444.53;;;12.79;100.00
69318;BME280;56457;52.190;4.440;2023-03-30T03:45:55;100438.41;;;12.80;100.00
69318;BME280;56457;52.190;4.440;2023-03-30T03:46:56;100431.50;;;12.73;100.00
69318;BME280;56457;52.190;4.440;2023-03-30T03:47:56;100439.31;;;12.78;100.00
69318;BME280;56457;52.190;4.440;2023-03-30T03:48:56;100434.09;;;12.76;100.00
69318;BME280;56457;52.190;4.440;2023-03-30T03:49:56;100436.03;;;12.68;100.00
69318;BME280;56457;52.190;4.440;2023-03-30T03:50:57;100434.31;;;12.67;100.00
69318;BME280;56457;52.190;4.440;2023-03-30T03:51:57;100432.66;;;12.63;100.00
69318;BME280;56457;52.190;4.440;2023-03-30T03:52:58;100421.25;;;12.62;100.00
69318;BME280;56457;52.190;4.440;2023-03-30T03:53:58;100431.88;;;12.58;100.00
69318;BME280;56457;52.190;4.440;2023-03-30T03:54:59;100423.97;;;12.58;100.00
69318;BME280;56457;52.190;4.440;2023-03-30T03:55:59;100426.66;;;12.56;100.00
69318;BME280;56457;52.190;4.440;2023-03-30T03:56:59;100434.66;;;12.52;100.00
69318;BME280;56457;52.190;4.440;2023-03-30T03:58:01;100422.44;;;12.48;100.00
69318;BME280;56457;52.190;4.440;2023-03-30T03:59:02;100423.25;;;12.51;100.00
69318;BME280;56457;52.190;4.440;2023-03-30T04:00:04;100417.13;;;12.51;100.00
69318;BME280;56457;52.190;4.440;2023-03-30T04:01:14;100426.69;;;12.55;100.00
69318;BME280;56457;52.190;4.440;2023-03-30T04:02:14;100419.69;;;12.54;100.00
69318;BME280;56457;52.190;4.440;2023-03-30T04:03:15;100417.13;;;12.51;100.00
69318;BME280;56457;52.190;4.440;2023-03-30T04:04:15;100419.75;;;12.51;100.00
69318;BME280;56457;52.190;4.440;2023-03-30T04:05:16;100418.03;;;12.48;100.00
69318;BME280;56457;52.190;4.440;2023-03-30T04:06:16;100416.44;;;12.43;100.00
69318;BME280;56457;52.190;4.440;2023-03-30T04:07:17;100420.09;;;12.35;100.00
69318;BME280;56457;52.190;4.440;2023-03-30T04:08:17;100419.25;;;12.33;100.00
69318;BME280;56457;52.190;4.440;2023-03-30T04:09:17;100417.53;;;12.32;100.00
69318;BME280;56457;52.190;4.440;2023-03-30T04:10:18;100418.44;;;12.31;100.00
69318;BME280;56457;52.190;4.440;2023-03-30T04:11:19;100418.44;;;12.31;100.00
69318;BME280;56457;52.190;4.440;2023-03-30T04:12:20;100418.47;;;12.28;100.00
69318;BME280;56457;52.190;4.440;2023-03-30T04:13:20;100422.84;;;12.31;100.00
69318;BME280;56457;52.190;4.440;2023-03-30T04:14:21;100427.28;;;12.27;100.00
69318;BME280;56457;52.190;4.440;2023-03-30T04:15:21;100442.25;;;12.25;100.00
69318;BME280;56457;52.190;4.440;2023-03-30T04:16:22;100431.63;;;12.28;100.00
69318;BME280;56457;52.190;4.440;2023-03-30T04:17:22;100429.00;;;12.30;100.00
69318;BME280;56457;52.190;4.440;2023-03-30T04:18:22;100430.84;;;12.25;100.00
69318;BME280;56457;52.190;4.440;2023-03-30T04:19:23;100419.56;;;12.20;100.00
69318;BME280;56457;52.190;4.440;2023-03-30T04:20:24;100423.06;;;12.20;100.00
69318;BME280;56457;52.190;4.440;2023-03-30T04:21:25;100425.69;;;12.20;100.00
69318;BME280;56457;52.190;4.440;2023-03-30T04:22:29;100433.50;;;12.23;100.00
69318;BME280;56457;52.190;4.440;2023-03-30T04:23:33;100419.56;;;12.20;100.00
69318;BME280;56457;52.190;4.440;2023-03-30T04:24:33;100430.97;;;12.19;100.00
69318;BME280;56457;52.190;4.440;2023-03-30T04:25:34;100422.25;;;12.17;100.00
69318;BME280;56457;52.190;4.440;2023-03-30T04:26:35;100430.16;;;12.15;100.00
69318;BME280;56457;52.190;4.440;2023-03-30T04:27:36;100424.94;;;12.13;100.00
69318;BME280;56457;52.190;4.440;2023-03-30T04:28:36;100435.44;;;12.15;100.00
69318;BME280;56457;52.190;4.440;2023-03-30T04:29:39;100423.22;;;12.12;100.00
69318;BME280;56457;52.190;4.440;2023-03-30T04:30:39;100423.22;;;12.11;100.00
69318;BME280;56457;52.190;4.440;2023-03-30T04:31:40;100425.84;;;12.12;100.00
69318;BME280;56457;52.190;4.440;2023-03-30T04:32:41;100430.25;;;12.10;100.00
69318;BME280;56457;52.190;4.440;2023-03-30T04:33:41;100418.13;;;12.05;100.00
69318;BME280;56457;52.190;4.440;2023-03-30T04:34:49;100425.25;;;12.00;100.00
69318;BME280;56457;52.190;4.440;2023-03-30T04:35:53;100425.28;;;11.97;100.00
69318;BME280;56457;52.190;4.440;2023-03-30T04:36:54;100436.78;;;11.93;100.00
69318;BME280;56457;52.190;4.440;2023-03-30T04:37:54;100435.00;;;11.93;100.00
69318;BME280;56457;52.190;4.440;2023-03-30T04:38:57;100429.88;;;11.87;100.00
69318;BME280;56457;52.190;4.440;2023-03-30T04:39:57;100426.38;;;11.85;100.00
69318;BME280;56457;52.190;4.440;2023-03-30T04:40:58;100419.44;;;11.82;100.00
69318;BME280;56457;52.190;4.440;2023-03-30T04:41:59;100421.22;;;11.79;100.00
69318;BME280;56457;52.190;4.440;2023-03-30T04:43:03;100429.22;;;11.74;100.00
69318;BME280;56457;52.190;4.440;2023-03-30T04:44:04;100420.50;;;11.71;100.00
69318;BME280;56457;52.190;4.440;2023-03-30T04:45:05;100433.59;;;11.74;100.00
69318;BME280;56457;52.190;4.440;2023-03-30T04:46:06;100421.44;;;11.68;100.00
69318;BME280;56457;52.190;4.440;2023-03-30T04:47:06;100431.09;;;11.68;100.00
69318;BME280;56457;52.190;4.440;2023-03-30T04:48:07;100412.66;;;11.69;100.00
69318;BME280;56457;52.190;4.440;2023-03-30T04:49:07;100411.88;;;11.64;100.00
69318;BME280;56457;52.190;4.440;2023-03-30T04:50:07;100424.16;;;11.64;100.00
69318;BME280;56457;52.190;4.440;2023-03-30T04:51:08;100417.94;;;11.68;100.00
69318;BME280;56457;52.190;4.440;2023-03-30T04:52:08;100418.81;;;11.68;100.00
69318;BME280;56457;52.190;4.440;2023-03-30T04:53:09;100426.03;;;11.57;100.00
69318;BME280;56457;52.190;4.440;2023-03-30T04:54:09;100434.75;;;11.59;100.00
69318;BME280;56457;52.190;4.440;2023-03-30T04:55:10;100426.06;;;11.54;100.00
69318;BME280;56457;52.190;4.440;2023-03-30T04:56:10;100441.81;;;11.54;100.00
69318;BME280;56457;52.190;4.440;2023-03-30T04:57:11;100433.03;;;11.55;100.00
69318;BME280;56457;52.190;4.440;2023-03-30T04:58:13;100428.69;;;11.54;100.00
69318;BME280;56457;52.190;4.440;2023-03-30T04:59:13;100434.84;;;11.53;100.00
69318;BME280;56457;52.190;4.440;2023-03-30T05:00:13;100433.97;;;11.52;100.00
69318;BME280;56457;52.190;4.440;2023-03-30T05:01:14;100432.28;;;11.50;100.00
69318;BME280;56457;52.190;4.440;2023-03-30T05:02:14;100431.44;;;11.48;100.00
69318;BME280;56457;52.190;4.440;2023-03-30T05:03:15;100434.97;;;11.47;100.00
69318;BME280;56457;52.190;4.440;2023-03-30T05:04:15;100431.53;;;11.42;100.00
69318;BME280;56457;52.190;4.440;2023-03-30T05:05:16;100438.53;;;11.43;100.00
69318;BME280;56457;52.190;4.440;2023-03-30T05:06:16;100431.53;;;11.42;100.00
69318;BME280;56457;52.190;4.440;2023-03-30T05:07:16;100422.91;;;11.37;100.00
69318;BME280;56457;52.190;4.440;2023-03-30T05:08:17;100428.16;;;11.37;100.00
69318;BME280;56457;52.190;4.440;2023-03-30T05:09:17;100422.91;;;11.37;100.00
69318;BME280;56457;52.190;4.440;2023-03-30T05:10:18;100429.06;;;11.34;100.00
69318;BME280;56457;52.190;4.440;2023-03-30T05:11:18;100424.66;;;11.35;100.00
69318;BME280;56457;52.190;4.440;2023-03-30T05:12:18;100417.75;;;11.30;100.00
69318;BME280;56457;52.190;4.440;2023-03-30T05:13:19;100417.75;;;11.30;100.00
69318;BME280;56457;52.190;4.440;2023-03-30T05:14:19;100413.47;;;11.23;100.00
69318;BME280;56457;52.190;4.440;2023-03-30T05:15:19;100413.56;;;11.17;100.00
69318;BME280;56457;52.190;4.440;2023-03-30T05:16:20;100436.34;;;11.18;100.00
69318;BME280;56457;52.190;4.440;2023-03-30T05:17:21;100429.38;;;11.16;100.00
69318;BME280;56457;52.190;4.440;2023-03-30T05:18:21;100437.28;;;11.14;100.00
69318;BME280;56457;52.190;4.440;2023-03-30T05:19:21;100444.34;;;11.09;100.00
69318;BME280;56457;52.190;4.440;2023-03-30T05:20:22;100442.56;;;11.11;100.00
69318;BME280;56457;52.190;4.440;2023-03-30T05:21:22;100444.34;;;11.09;100.00
69318;BME280;56457;52.190;4.440;2023-03-30T05:22:23;100427.75;;;11.09;100.00
69318;BME280;56457;52.190;4.440;2023-03-30T05:23:23;100441.69;;;11.12;100.00
69318;BME280;56457;52.190;4.440;2023-03-30T05:24:24;100439.16;;;11.06;100.00
69318;BME280;56457;52.190;4.440;2023-03-30T05:25:25;100438.34;;;11.02;100.00
69318;BME280;56457;52.190;4.440;2023-03-30T05:26:26;100439.25;;;11.01;100.00
69318;BME280;56457;52.190;4.440;2023-03-30T05:27:27;100437.50;;;10.99;100.00
69318;BME280;56457;52.190;4.440;2023-03-30T05:28:27;100428.78;;;10.98;100.00
69318;BME280;56457;52.190;4.440;2023-03-30T05:29:28;100440.13;;;10.99;100.00
69318;BME280;56457;52.190;4.440;2023-03-30T05:30:28;100431.41;;;10.98;100.00
69318;BME280;56457;52.190;4.440;2023-03-30T05:31:28;100434.03;;;10.98;100.00
69318;BME280;56457;52.190;4.440;2023-03-30T05:32:29;100436.66;;;11.00;100.00
69318;BME280;56457;52.190;4.440;2023-03-30T05:33:29;100438.38;;;11.01;100.00
69318;BME280;56457;52.190;4.440;2023-03-30T05:34:29;100449.81;;;10.97;100.00
69318;BME280;56457;52.190;4.440;2023-03-30T05:35:30;100449.81;;;10.97;100.00
69318;BME280;56457;52.190;4.440;2023-03-30T05:36:30;100451.50;;;11.01;100.00
69318;BME280;56457;52.190;4.440;2023-03-30T05:37:31;100440.97;;;11.02;100.00
69318;BME280;56457;52.190;4.440;2023-03-30T05:38:31;100456.78;;;10.98;100.00
69318;BME280;56457;52.190;4.440;2023-03-30T05:39:31;100449.75;;;10.98;100.00
69318;BME280;56457;52.190;4.440;2023-03-30T05:40:32;100461.94;;;11.04;100.00
69318;BME280;56457;52.190;4.440;2023-03-30T05:41:32;100450.59;;;11.02;100.00
69318;BME280;56457;52.190;4.440;2023-03-30T05:42:32;100443.59;;;11.02;100.00
69318;BME280;56457;52.190;4.440;2023-03-30T05:43:32;100447.09;;;11.01;100.00
69318;BME280;56457;52.190;4.440;2023-03-30T05:44:33;100447.88;;;11.08;100.00
69318;BME280;56457;52.190;4.440;2023-03-30T05:45:33;100458.41;;;11.07;100.00
69318;BME280;56457;52.190;4.440;2023-03-30T05:46:33;100454.84;;;11.09;100.00
69318;BME280;56457;52.190;4.440;2023-03-30T05:47:34;100451.34;;;11.10;100.00
69318;BME280;56457;52.190;4.440;2023-03-30T05:48:34;100454.84;;;11.09;100.00
69318;BME280;56457;52.190;4.440;2023-03-30T05:49:35;100474.13;;;11.08;100.00
69318;BME280;56457;52.190;4.440;2023-03-30T05:50:35;100454.75;;;11.15;100.00
69318;BME280;56457;52.190;4.440;2023-03-30T05:51:35;100453.81;;;11.18;100.00
69318;BME280;56457;52.190;4.440;2023-03-30T05:52:36;100463.44;;;11.20;100.00
69318;BME280;56457;52.190;4.440;2023-03-30T05:53:36;100460.81;;;11.20;100.00